Time;durP1;ratioP1;P1;durP2;ratioP2;P2;SDS_P1;SDS_P2;PMS_P1;PMS_P2;Temp;Humidity;BMP_temperature;BMP_pressure;BME280_temperature;BME280_humidity;BME280_pressure;Samples;Min_cycle;Max_cycle;Signal;HPM_P1;HPM_P2
2022/11/03 00:01:11;;;;;;;;;;;;;;;;;;5071530;28;19951;-80
2022/11/03 00:03:38;;;;;;;;;;;;;;;;;;5077054;28;19952;-80
2022/11/03 00:06:04;;;;;;;;;;;;;;;;;;5053296;28;19951;-81
2022/11/03 00:08:30;;;;;;;;;;;;;;;;;;5064148;28;20059;-80
2022/11/03 00:10:56;;;;;;;;;;;;;;;;;;5045485;28;19942;-81
2022/11/03 00:13:22;;;;;;;;;;;;;;;;;;5040210;28;20401;-80
2022/11/03 00:15:48;;;;;;;;;;;;;;;;;;5049945;28;19955;-82
2022/11/03 00:18:15;;;;;;;;;;;;;;;;;;5052037;28;19962;-80
2022/11/03 00:20:41;;;;;;;;;;;;;;;;;;5053077;28;19946;-80
2022/11/03 00:23:07;;;;;;;;;;;;;;;;;;5065763;28;20386;-80
2022/11/03 00:25:33;;;;;;;;;;;;;;;;;;5049788;28;19943;-80
2022/11/03 00:27:59;;;;;;;;;;;;;;;;;;5069205;28;19947;-80
2022/11/03 00:30:26;;;;;;;;;;;;;;;;;;5069546;28;19958;-80
2022/11/03 00:32:52;;;;;;;;;;;;;;;;;;5062785;28;20541;-80
2022/11/03 00:35:18;;;;;;;;;;;;;;;;;;5052114;28;19958;-80
2022/11/03 00:37:44;;;;;;;;;;;;;;;;;;5046509;28;19964;-81
2022/11/03 00:40:10;;;;;;;;;;;;;;;;;;5054747;28;19971;-81
2022/11/03 00:42:37;;;;;;;;;;;;;;;;;;5086393;28;19962;-81
2022/11/03 00:45:04;;;;;;;;;;;;;;;;;;5061397;28;19965;-81
2022/11/03 00:47:30;;;;;;;;;;;;;;;;;;5042890;28;19948;-80
2022/11/03 00:49:56;;;;;;;;;;;;;;;;;;5086880;28;19944;-80
2022/11/03 00:52:22;;;;;;;;;;;;;;;;;;5086420;28;20501;-81
2022/11/03 00:54:48;;;;;;;;;;;;;;;;;;5070408;28;19960;-83
2022/11/03 00:57:15;;;;;;;;;;;;;;;;;;5051225;28;19916;-83
2022/11/03 00:59:41;;;;;;;;;;;;;;;;;;5068229;28;19967;-83
2022/11/03 01:02:07;;;;;;;;;;;;;;;;;;5054233;28;19962;-83
2022/11/03 01:07:18;;;;;;;;;;;;;;;;;;5058735;28;19944;-82
2022/11/03 01:09:44;;;;;;;;;;;;;;;;;;5065305;28;19974;-80
2022/11/03 01:12:10;;;;;;;;;;;;;;;;;;5045010;28;19955;-82
2022/11/03 01:14:36;;;;;;;;;;;;;;;;;;5068442;28;19920;-81
2022/11/03 01:17:03;;;;;;;;;;;;;;;;;;5062824;28;19989;-81
2022/11/03 01:19:29;;;;;;;;;;;;;;;;;;5065993;28;19970;-79
2022/11/03 01:21:55;;;;;;;;;;;;;;;;;;5065126;28;19966;-80
2022/11/03 01:24:21;;;;;;;;;;;;;;;;;;5043960;28;20325;-80
2022/11/03 01:26:48;;;;;;;;;;;;;;;;;;5079550;28;19951;-82
2022/11/03 01:29:14;;;;;;;;;;;;;;;;;;5058970;28;19960;-80
2022/11/03 01:31:40;;;;;;;;;;;;;;;;;;5085898;28;19963;-79
2022/11/03 01:34:06;;;;;;;;;;;;;;;;;;5086610;28;19959;-80
2022/11/03 01:36:32;;;;;;;;;;;;;;;;;;5052154;28;19963;-81
2022/11/03 01:38:59;;;;;;;;;;;;;;;;;;5086777;28;19992;-81
2022/11/03 01:41:25;;;;;;;;;;;;;;;;;;5055475;28;20339;-81
2022/11/03 01:43:51;;;;;;;;;;;;;;;;;;5045943;28;19955;-81
2022/11/03 01:46:17;;;;;;;;;;;;;;;;;;5069466;28;19952;-79
2022/11/03 01:48:43;;;;;;;;;;;;;;;;;;5067741;28;19940;-80
2022/11/03 01:51:10;;;;;;;;;;;;;;;;;;5086679;28;19940;-79
2022/11/03 01:53:37;;;;;;;;;;;;;;;;;;5084827;28;19912;-79
2022/11/03 01:56:03;;;;;;;;;;;;;;;;;;5048661;28;19968;-79
2022/11/03 01:58:29;;;;;;;;;;;;;;;;;;5069219;28;19963;-78
2022/11/03 02:00:55;;;;;;;;;;;;;;;;;;5069270;28;19970;-79
2022/11/03 02:03:21;;;;;;;;;;;;;;;;;;5067436;28;20425;-78
2022/11/03 02:05:48;;;;;;;;;;;;;;;;;;5072010;28;19923;-78
2022/11/03 02:08:16;;;;;;;;;;;;;;;;;;5050578;28;20433;-78
2022/11/03 02:10:42;;;;;;;;;;;;;;;;;;5078536;28;20049;-81
2022/11/03 02:13:09;;;;;;;;;;;;;;;;;;5046097;28;19955;-81
2022/11/03 02:15:35;;;;;;;;;;;;;;;;;;5041248;28;20333;-81
2022/11/03 02:18:01;;;;;;;;;;;;;;;;;;5064480;28;19973;-82
2022/11/03 02:20:28;;;;;;;;;;;;;;;;;;5054850;28;19975;-80
2022/11/03 02:22:54;;;;;;;;;;;;;;;;;;5084375;28;19993;-79
2022/11/03 02:25:20;;;;;;;;;;;;;;;;;;5043579;28;19962;-79
2022/11/03 02:27:46;;;;;;;;;;;;;;;;;;5083073;28;19948;-79
2022/11/03 02:30:12;;;;;;;;;;;;;;;;;;5069572;28;19967;-79
2022/11/03 02:32:39;;;;;;;;;;;;;;;;;;5082328;28;19982;-80
2022/11/03 02:35:05;;;;;;;;;;;;;;;;;;5067415;28;19924;-80
2022/11/03 02:37:31;;;;;;;;;;;;;;;;;;5084750;28;19949;-80
2022/11/03 02:39:57;;;;;;;;;;;;;;;;;;5052158;28;19955;-80
2022/11/03 02:42:23;;;;;;;;;;;;;;;;;;5042960;28;20028;-79
2022/11/03 02:44:49;;;;;;;;;;;;;;;;;;5042441;28;19952;-78
2022/11/03 02:47:16;;;;;;;;;;;;;;;;;;5044966;28;19963;-78
2022/11/03 02:49:42;;;;;;;;;;;;;;;;;;5085134;28;19955;-78
2022/11/03 02:52:08;;;;;;;;;;;;;;;;;;5067293;28;19966;-78
2022/11/03 02:54:34;;;;;;;;;;;;;;;;;;5055243;28;19956;-80
2022/11/03 02:57:00;;;;;;;;;;;;;;;;;;5048999;28;19983;-79
2022/11/03 02:59:27;;;;;;;;;;;;;;;;;;5067065;28;19950;-80
2022/11/03 03:01:53;;;;;;;;;;;;;;;;;;5032472;28;19970;-81
2022/11/03 03:04:19;;;;;;;;;;;;;;;;;;5050890;28;19955;-80
2022/11/03 03:06:45;;;;;;;;;;;;;;;;;;5065750;28;19970;-80
2022/11/03 03:09:11;;;;;;;;;;;;;;;;;;5057256;28;20339;-80
2022/11/03 03:11:38;;;;;;;;;;;;;;;;;;5045164;28;20391;-80
2022/11/03 03:14:04;;;;;;;;;;;;;;;;;;5068659;28;19943;-80
2022/11/03 03:16:30;;;;;;;;;;;;;;;;;;5064355;28;19916;-80
2022/11/03 03:18:56;;;;;;;;;;;;;;;;;;5068005;28;19947;-80
2022/11/03 03:21:22;;;;;;;;;;;;;;;;;;5079093;28;20371;-80
2022/11/03 03:23:49;;;;;;;;;;;;;;;;;;5067407;28;19920;-80
2022/11/03 03:26:15;;;;;;;;;;;;;;;;;;5047524;28;19912;-81
2022/11/03 03:28:41;;;;;;;;;;;;;;;;;;5060004;28;19989;-81
2022/11/03 03:31:07;;;;;;;;;;;;;;;;;;5045854;28;20357;-82
2022/11/03 03:33:34;;;;;;;;;;;;;;;;;;5065874;28;19952;-78
2022/11/03 03:36:00;;;;;;;;;;;;;;;;;;5050116;28;19923;-80
2022/11/03 03:38:26;;;;;;;;;;;;;;;;;;5065841;28;20110;-79
2022/11/03 03:40:53;;;;;;;;;;;;;;;;;;5059969;28;19978;-80
2022/11/03 03:43:19;;;;;;;;;;;;;;;;;;5064711;28;20371;-79
2022/11/03 03:45:45;;;;;;;;;;;;;;;;;;5075897;28;19979;-82
2022/11/03 03:48:11;;;;;;;;;;;;;;;;;;5050117;28;19940;-79
2022/11/03 03:50:37;;;;;;;;;;;;;;;;;;5047975;28;20582;-79
2022/11/03 03:53:04;;;;;;;;;;;;;;;;;;5085155;28;20299;-80
2022/11/03 03:55:30;;;;;;;;;;;;;;;;;;5047978;28;19964;-80
2022/11/03 03:57:56;;;;;;;;;;;;;;;;;;5063700;28;19956;-80
2022/11/03 04:00:22;;;;;;;;;;;;;;;;;;5061829;28;19973;-79
2022/11/03 04:02:48;;;;;;;;;;;;;;;;;;5068112;28;19936;-80
2022/11/03 04:05:15;;;;;;;;;;;;;;;;;;5084507;28;19947;-80
2022/11/03 04:07:47;;;;;;;;;;;;;;;;;;5074747;28;21946;-80
2022/11/03 04:10:13;;;;;;;;;;;;;;;;;;5085180;28;19958;-81
2022/11/03 04:29:08;;;;;;;;;;;;;;;;;;5074494;28;20328;-81
2022/11/03 04:31:35;;;;;;;;;;;;;;;;;;5038978;28;20005;-81
2022/11/03 04:34:01;;;;;;;;;;;;;;;;;;5066793;28;19963;-80
2022/11/03 04:36:27;;;;;;;;;;;;;;;;;;5064065;28;19959;-80
2022/11/03 04:38:54;;;;;;;;;;;;;;;;;;5065915;28;19972;-80
2022/11/03 04:41:20;;;;;;;;;;;;;;;;;;5081058;28;20342;-81
2022/11/03 04:43:46;;;;;;;;;;;;;;;;;;5046093;28;19953;-79
2022/11/03 04:46:12;;;;;;;;;;;;;;;;;;5081127;28;19952;-80
2022/11/03 04:48:38;;;;;;;;;;;;;;;;;;5066246;28;19952;-79
2022/11/03 04:51:05;;;;;;;;;;;;;;;;;;5066833;28;20537;-80
2022/11/03 04:53:31;;;;;;;;;;;;;;;;;;5068761;28;19970;-81
2022/11/03 04:55:57;;;;;;;;;;;;;;;;;;5059133;28;19955;-81
2022/11/03 04:58:23;;;;;;;;;;;;;;;;;;5062364;28;20341;-81
2022/11/03 05:00:49;;;;;;;;;;;;;;;;;;5052889;28;19948;-81
2022/11/03 05:03:16;;;;;;;;;;;;;;;;;;5052696;28;19955;-81
2022/11/03 05:05:42;;;;;;;;;;;;;;;;;;5069133;28;19997;-81
2022/11/03 05:08:08;;;;;;;;;;;;;;;;;;5086675;28;19955;-81
2022/11/03 05:10:34;;;;;;;;;;;;;;;;;;5064605;28;19978;-81
2022/11/03 05:13:00;;;;;;;;;;;;;;;;;;5050810;28;19947;-81
2022/11/03 05:15:28;;;;;;;;;;;;;;;;;;5085138;28;19920;-79
2022/11/03 05:17:54;;;;;;;;;;;;;;;;;;5052374;28;19946;-79
2022/11/03 05:20:20;;;;;;;;;;;;;;;;;;5061527;28;19963;-80
2022/11/03 05:22:46;;;;;;;;;;;;;;;;;;5068757;28;19973;-79
2022/11/03 05:25:12;;;;;;;;;;;;;;;;;;5087034;28;19974;-79
2022/11/03 05:27:39;;;;;;;;;;;;;;;;;;5066895;28;19923;-79
2022/11/03 05:30:05;;;;;;;;;;;;;;;;;;5066075;28;19966;-79
2022/11/03 05:32:31;;;;;;;;;;;;;;;;;;5088595;28;19951;-79
2022/11/03 05:34:57;;;;;;;;;;;;;;;;;;5070405;28;19964;-80
2022/11/03 05:37:23;;;;;;;;;;;;;;;;;;5042425;28;19917;-80
2022/11/03 05:39:50;;;;;;;;;;;;;;;;;;5067593;28;19970;-83
2022/11/03 05:42:16;;;;;;;;;;;;;;;;;;5050078;28;19924;-82
2022/11/03 05:44:42;;;;;;;;;;;;;;;;;;5061092;28;25163;-82
2022/11/03 05:47:08;;;;;;;;;;;;;;;;;;5069522;28;19959;-82
2022/11/03 05:49:34;;;;;;;;;;;;;;;;;;5061702;28;20079;-81
2022/11/03 05:52:01;;;;;;;;;;;;;;;;;;5066215;28;19952;-82
2022/11/03 05:54:27;;;;;;;;;;;;;;;;;;5068374;28;19943;-83
2022/11/03 05:56:53;;;;;;;;;;;;;;;;;;5077468;28;19964;-80
2022/11/03 05:59:20;;;;;;;;;;;;;;;;;;5063024;28;20356;-80
2022/11/03 06:01:46;;;;;;;;;;;;;;;;;;5039731;28;19952;-80
2022/11/03 06:04:12;;;;;;;;;;;;;;;;;;5035505;28;19959;-80
2022/11/03 06:06:38;;;;;;;;;;;;;;;;;;5067440;28;19916;-79
2022/11/03 06:09:05;;;;;;;;;;;;;;;;;;5069144;28;19940;-79
2022/11/03 06:11:31;;;;;;;;;;;;;;;;;;5049230;28;19963;-79
2022/11/03 06:13:57;;;;;;;;;;;;;;;;;;5048921;28;19960;-79
2022/11/03 06:16:23;;;;;;;;;;;;;;;;;;5048094;28;19951;-79
2022/11/03 06:18:49;;;;;;;;;;;;;;;;;;5069333;28;19943;-80
2022/11/03 06:21:16;;;;;;;;;;;;;;;;;;5045399;28;19960;-79
2022/11/03 06:23:42;;;;;;;;;;;;;;;;;;5061893;28;19956;-79
2022/11/03 06:26:08;;;;;;;;;;;;;;;;;;5078414;28;19975;-79
2022/11/03 06:28:35;;;;;;;;;;;;;;;;;;5066857;28;20391;-79
2022/11/03 06:31:03;;;;;;;;;;;;;;;;;;5045821;28;19952;-79
2022/11/03 06:33:29;;;;;;;;;;;;;;;;;;5047274;28;19943;-78
2022/11/03 06:35:55;;;;;;;;;;;;;;;;;;5084398;28;19916;-80
2022/11/03 06:38:21;;;;;;;;;;;;;;;;;;5041530;28;19972;-81
2022/11/03 06:40:48;;;;;;;;;;;;;;;;;;5064290;28;19964;-81
2022/11/03 06:43:14;;;;;;;;;;;;;;;;;;5064333;28;19974;-78
2022/11/03 06:45:40;;;;;;;;;;;;;;;;;;5043557;28;19971;-78
2022/11/03 06:48:06;;;;;;;;;;;;;;;;;;5046553;28;19944;-82
2022/11/03 06:50:32;;;;;;;;;;;;;;;;;;5044503;28;19963;-85
2022/11/03 06:52:59;;;;;;;;;;;;;;;;;;5045148;28;20047;-83
2022/11/03 06:55:25;;;;;;;;;;;;;;;;;;5047458;28;19954;-82
2022/11/03 06:57:51;;;;;;;;;;;;;;;;;;5065650;28;20010;-85
2022/11/03 07:00:17;;;;;;;;;;;;;;;;;;5080755;28;19967;-84
2022/11/03 07:02:43;;;;;;;;;;;;;;;;;;5041891;28;19970;-86
2022/11/03 07:05:10;;;;;;;;;;;;;;;;;;5062020;28;19946;-85
2022/11/03 07:07:36;;;;;;;;;;;;;;;;;;5059192;28;19978;-85
2022/11/03 07:10:03;;;;;;;;;;;;;;;;;;5061752;28;19912;-84
2022/11/03 07:12:30;;;;;;;;;;;;;;;;;;5042115;28;20746;-86
2022/11/03 07:14:56;;;;;;;;;;;;;;;;;;5043996;28;20405;-85
2022/11/03 07:17:23;;;;;;;;;;;;;;;;;;5066760;28;19947;-89
2022/11/03 07:19:49;;;;;;;;;;;;;;;;;;5082263;28;20215;-88
2022/11/03 07:22:15;;;;;;;;;;;;;;;;;;5066073;28;20091;-89
2022/11/03 07:24:41;;;;;;;;;;;;;;;;;;5050525;28;19974;-88
2022/11/03 07:27:07;;;;;;;;;;;;;;;;;;5044516;28;19947;-89
2022/11/03 07:29:33;;;;;;;;;;;;;;;;;;5061094;28;19957;-89
2022/11/03 07:32:00;;;;;;;;;;;;;;;;;;5072708;28;19993;-89
2022/11/03 07:34:26;;;;;;;;;;;;;;;;;;5045842;28;19989;-88
2022/11/03 07:36:52;;;;;;;;;;;;;;;;;;5054687;28;19920;-90
2022/11/03 07:39:18;;;;;;;;;;;;;;;;;;5047208;28;19956;-91
2022/11/03 07:42:02;;;;;;;;;;;;;;;;;;5045609;28;19921;-89
2022/11/03 07:44:38;;;;;;;;;;;;;;;;;;5013059;28;19927;-90
2022/11/03 07:47:04;;;;;;;;;;;;;;;;;;5035745;28;19916;-90
2022/11/03 07:49:31;;;;;;;;;;;;;;;;;;5042645;28;19924;-89
2022/11/03 07:51:57;;;;;;;;;;;;;;;;;;5062658;28;19963;-89
2022/11/03 07:54:23;;;;;;;;;;;;;;;;;;5062599;28;20441;-89
2022/11/03 07:56:49;;;;;;;;;;;;;;;;;;5060272;28;21587;-89
2022/11/03 07:59:16;;;;;;;;;;;;;;;;;;5038352;28;19956;-85
2022/11/03 08:01:42;;;;;;;;;;;;;;;;;;5050281;28;19912;-88
2022/11/03 08:07:28;;;;;;;;;;;;;;;;;;5010723;28;20055;-90
2022/11/03 08:10:07;;;;;;;;;;;;;;;;;;5041385;28;20075;-90
2022/11/03 08:12:33;;;;;;;;;;;;;;;;;;5033773;28;19917;-92
2022/11/03 08:15:28;;;;;;;;;;;;;;;;;;5067657;28;19915;-89
2022/11/03 08:18:15;;;;;;;;;;;;;;;;;;5056736;28;20252;-89
2022/11/03 08:21:01;;;;;;;;;;;;;;;;;;5087278;28;19931;-91
2022/11/03 08:23:48;;;;;;;;;;;;;;;;;;5075181;28;20338;-91
2022/11/03 08:26:34;;;;;;;;;;;;;;;;;;5086194;28;19938;-82
2022/11/03 08:29:21;;;;;;;;;;;;;;;;;;5070847;28;19908;-86
2022/11/03 08:32:07;;;;;;;;;;;;;;;;;;5072325;28;19912;-88
2022/11/03 08:34:54;;;;;;;;;;;;;;;;;;5060655;28;19908;-88
2022/11/03 08:41:05;;;;;;;;;;;;;;;;;;5042654;28;19921;-88
2022/11/03 08:43:52;;;;;;;;;;;;;;;;;;5043923;28;20299;-89
2022/11/03 08:46:38;;;;;;;;;;;;;;;;;;5081209;28;19920;-88
2022/11/03 08:49:25;;;;;;;;;;;;;;;;;;5073868;28;19916;-86
2022/11/03 08:52:11;;;;;;;;;;;;;;;;;;5085297;28;20291;-82
2022/11/03 08:54:58;;;;;;;;;;;;;;;;;;5071791;28;19918;-89
2022/11/03 08:57:44;;;;;;;;;;;;;;;;;;5075672;28;19915;-90
2022/11/03 09:00:31;;;;;;;;;;;;;;;;;;5090543;28;19934;-89
2022/11/03 09:03:18;;;;;;;;;;;;;;;;;;5072889;28;20636;-88
2022/11/03 09:06:04;;;;;;;;;;;;;;;;;;5089410;28;19911;-88
2022/11/03 09:08:51;;;;;;;;;;;;;;;;;;5076802;28;19916;-88
2022/11/03 09:11:37;;;;;;;;;;;;;;;;;;5071759;28;19918;-88
2022/11/03 09:14:23;;;;;;;;;;;;;;;;;;5073177;28;20293;-90
2022/11/03 09:17:10;;;;;;;;;;;;;;;;;;5066908;28;19912;-88
2022/11/03 09:19:56;;;;;;;;;;;;;;;;;;5088913;28;19920;-88
2022/11/03 09:22:43;;;;;;;;;;;;;;;;;;5091077;28;19917;-88
2022/11/03 09:25:29;;;;;;;;;;;;;;;;;;5075470;28;19912;-89
2022/11/03 09:28:17;;;;;;;;;;;;;;;;;;5076743;28;19919;-87
2022/11/03 09:31:04;;;;;;;;;;;;;;;;;;5088516;28;19923;-88
2022/11/03 09:33:51;;;;;;;;;;;;;;;;;;5088395;28;19916;-89
2022/11/03 09:36:37;;;;;;;;;;;;;;;;;;5089356;28;19908;-89
2022/11/03 09:39:24;;;;;;;;;;;;;;;;;;5084840;28;19930;-89
2022/11/03 09:42:10;;;;;;;;;;;;;;;;;;5074624;28;19912;-88
2022/11/03 09:45:00;;;;;;;;;;;;;;;;;;5072621;28;19912;-88
2022/11/03 09:47:46;;;;;;;;;;;;;;;;;;5072236;28;19914;-89
2022/11/03 09:50:33;;;;;;;;;;;;;;;;;;5073487;28;19912;-88
2022/11/03 09:53:19;;;;;;;;;;;;;;;;;;5074410;28;19916;-90
2022/11/03 09:56:06;;;;;;;;;;;;;;;;;;5071372;28;19920;-89
2022/11/03 09:58:52;;;;;;;;;;;;;;;;;;5077339;28;19923;-90
2022/11/03 10:01:39;;;;;;;;;;;;;;;;;;5076137;28;19916;-91
2022/11/03 10:04:26;;;;;;;;;;;;;;;;;;5077691;28;19912;-89
2022/11/03 10:07:12;;;;;;;;;;;;;;;;;;5066512;28;19908;-91
2022/11/03 10:10:00;;;;;;;;;;;;;;;;;;5073050;28;20395;-90
2022/11/03 10:12:46;;;;;;;;;;;;;;;;;;5087048;28;19912;-88
2022/11/03 10:15:33;;;;;;;;;;;;;;;;;;5085985;28;19967;-89
2022/11/03 10:18:19;;;;;;;;;;;;;;;;;;5088437;28;19915;-89
2022/11/03 10:21:06;;;;;;;;;;;;;;;;;;5068522;28;19935;-88
2022/11/03 10:23:52;;;;;;;;;;;;;;;;;;5084491;28;19908;-88
2022/11/03 10:26:39;;;;;;;;;;;;;;;;;;5066100;28;19927;-88
2022/11/03 10:29:26;;;;;;;;;;;;;;;;;;5077361;28;19935;-90
2022/11/03 10:32:14;;;;;;;;;;;;;;;;;;5077279;28;19922;-88
2022/11/03 10:35:00;;;;;;;;;;;;;;;;;;5071996;28;19926;-87
2022/11/03 10:37:47;;;;;;;;;;;;;;;;;;5088588;28;20276;-87
2022/11/03 10:40:34;;;;;;;;;;;;;;;;;;5077528;28;19935;-88
2022/11/03 10:43:20;;;;;;;;;;;;;;;;;;5076129;28;19916;-89
2022/11/03 10:46:07;;;;;;;;;;;;;;;;;;5073954;28;20233;-88
2022/11/03 10:48:53;;;;;;;;;;;;;;;;;;5071328;28;19916;-90
2022/11/03 10:51:40;;;;;;;;;;;;;;;;;;5076019;28;19978;-91
2022/11/03 10:54:26;;;;;;;;;;;;;;;;;;5076201;28;19926;-93
2022/11/03 10:57:14;;;;;;;;;;;;;;;;;;5075108;28;19912;-90
2022/11/03 11:00:00;;;;;;;;;;;;;;;;;;5073448;28;19920;-89
2022/11/03 11:02:47;;;;;;;;;;;;;;;;;;5079657;28;19916;-90
2022/11/03 11:05:33;;;;;;;;;;;;;;;;;;5095776;28;19920;-91
2022/11/03 11:08:20;;;;;;;;;;;;;;;;;;5076945;28;19912;-89
2022/11/03 11:11:06;;;;;;;;;;;;;;;;;;5079884;28;20283;-90
2022/11/03 11:13:53;;;;;;;;;;;;;;;;;;5078101;28;19946;-89
2022/11/03 11:16:39;;;;;;;;;;;;;;;;;;5089654;28;19916;-90
2022/11/03 11:19:26;;;;;;;;;;;;;;;;;;5078073;28;19930;-89
2022/11/03 11:22:12;;;;;;;;;;;;;;;;;;5076730;28;19912;-87
2022/11/03 11:24:59;;;;;;;;;;;;;;;;;;5080647;28;20364;-91
2022/11/03 11:27:45;;;;;;;;;;;;;;;;;;5085660;28;20362;-90
2022/11/03 11:30:32;;;;;;;;;;;;;;;;;;5078060;28;19928;-91
2022/11/03 11:33:18;;;;;;;;;;;;;;;;;;5070884;28;19920;-86
2022/11/03 11:36:05;;;;;;;;;;;;;;;;;;5081629;28;19922;-86
2022/11/03 11:38:54;;;;;;;;;;;;;;;;;;5067370;28;19930;-84
2022/11/03 11:41:40;;;;;;;;;;;;;;;;;;5077412;28;20405;-86
2022/11/03 11:44:26;;;;;;;;;;;;;;;;;;5067782;28;19916;-84
2022/11/03 11:47:13;;;;;;;;;;;;;;;;;;5073535;28;19922;-84
2022/11/03 11:50:00;;;;;;;;;;;;;;;;;;5089367;28;19915;-86
2022/11/03 11:52:46;;;;;;;;;;;;;;;;;;5086760;28;19916;-89
2022/11/03 11:55:33;;;;;;;;;;;;;;;;;;5077333;28;20371;-89
2022/11/03 11:58:19;;;;;;;;;;;;;;;;;;5080183;28;19913;-85
2022/11/03 12:01:06;;;;;;;;;;;;;;;;;;5097149;28;19919;-86
2022/11/03 12:03:53;;;;;;;;;;;;;;;;;;5089698;28;19916;-85
2022/11/03 12:06:39;;;;;;;;;;;;;;;;;;5091677;28;19912;-87
2022/11/03 12:09:26;;;;;;;;;;;;;;;;;;5078449;28;19912;-88
2022/11/03 12:12:13;;;;;;;;;;;;;;;;;;5076109;28;19938;-89
2022/11/03 12:14:59;;;;;;;;;;;;;;;;;;5076109;28;19912;-88
2022/11/03 12:17:45;;;;;;;;;;;;;;;;;;5071571;28;19912;-88
2022/11/03 12:20:32;;;;;;;;;;;;;;;;;;5075563;28;20567;-88
2022/11/03 12:23:18;;;;;;;;;;;;;;;;;;5078381;28;19908;-88
2022/11/03 12:26:05;;;;;;;;;;;;;;;;;;5074365;28;19923;-89
2022/11/03 12:28:51;;;;;;;;;;;;;;;;;;5076014;28;20260;-90
2022/11/03 12:31:38;;;;;;;;;;;;;;;;;;5084959;28;19917;-89
2022/11/03 12:34:24;;;;;;;;;;;;;;;;;;5089665;28;19919;-90
2022/11/03 12:37:11;;;;;;;;;;;;;;;;;;5076474;28;19934;-88
2022/11/03 12:39:57;;;;;;;;;;;;;;;;;;5076979;28;19924;-88
2022/11/03 12:42:44;;;;;;;;;;;;;;;;;;5076600;28;20267;-94
2022/11/03 12:45:31;;;;;;;;;;;;;;;;;;5089203;28;19916;-91
2022/11/03 12:48:18;;;;;;;;;;;;;;;;;;5075677;28;19916;-80
2022/11/03 12:51:05;;;;;;;;;;;;;;;;;;5067210;28;19920;-80
2022/11/03 12:53:51;;;;;;;;;;;;;;;;;;5071555;28;19916;-83
2022/11/03 12:56:37;;;;;;;;;;;;;;;;;;5069898;28;19912;-83
2022/11/03 12:59:24;;;;;;;;;;;;;;;;;;5070841;28;20394;-83
2022/11/03 13:02:10;;;;;;;;;;;;;;;;;;5072653;28;19916;-82
2022/11/03 13:04:57;;;;;;;;;;;;;;;;;;5073767;28;19912;-80
2022/11/03 13:07:43;;;;;;;;;;;;;;;;;;5083898;28;19920;-84
2022/11/03 13:10:30;;;;;;;;;;;;;;;;;;5071385;28;20933;-82
2022/11/03 13:13:16;;;;;;;;;;;;;;;;;;5071631;28;20283;-82
2022/11/03 13:16:03;;;;;;;;;;;;;;;;;;5087954;28;20431;-81
2022/11/03 13:18:49;;;;;;;;;;;;;;;;;;5073586;28;19920;-84
2022/11/03 13:21:36;;;;;;;;;;;;;;;;;;5086237;28;19916;-83
2022/11/03 13:24:22;;;;;;;;;;;;;;;;;;5072733;28;19908;-83
2022/11/03 13:27:12;;;;;;;;;;;;;;;;;;5069009;28;20033;-85
2022/11/03 13:29:58;;;;;;;;;;;;;;;;;;5071748;28;19926;-84
2022/11/03 13:32:45;;;;;;;;;;;;;;;;;;5077623;28;19919;-86
2022/11/03 13:35:31;;;;;;;;;;;;;;;;;;5068752;28;19928;-87
2022/11/03 13:38:18;;;;;;;;;;;;;;;;;;5072768;28;19942;-85
2022/11/03 13:41:04;;;;;;;;;;;;;;;;;;5072335;28;19920;-84
2022/11/03 13:43:51;;;;;;;;;;;;;;;;;;5063860;28;19915;-85
2022/11/03 13:46:37;;;;;;;;;;;;;;;;;;5072822;28;19912;-84
2022/11/03 13:49:24;;;;;;;;;;;;;;;;;;5058022;28;19926;-84
2022/11/03 13:52:10;;;;;;;;;;;;;;;;;;5071428;28;19916;-85
2022/11/03 13:54:57;;;;;;;;;;;;;;;;;;5069784;28;19923;-85
2022/11/03 13:57:43;;;;;;;;;;;;;;;;;;5070457;28;19908;-84
2022/11/03 14:00:29;;;;;;;;;;;;;;;;;;5069769;28;19931;-86
2022/11/03 14:03:16;;;;;;;;;;;;;;;;;;5070505;28;19914;-85
2022/11/03 14:06:03;;;;;;;;;;;;;;;;;;5065498;28;19960;-83
2022/11/03 14:08:49;;;;;;;;;;;;;;;;;;5070837;28;19916;-82
2022/11/03 14:14:41;;;;;;;;;;;;;;;;;;5084910;28;19918;-83
2022/11/03 14:17:27;;;;;;;;;;;;;;;;;;5063461;28;19923;-85
2022/11/03 14:20:14;;;;;;;;;;;;;;;;;;5082689;28;19935;-83
2022/11/03 14:23:00;;;;;;;;;;;;;;;;;;5078348;28;19922;-84
2022/11/03 14:25:47;;;;;;;;;;;;;;;;;;5070824;28;19923;-86
2022/11/03 14:28:33;;;;;;;;;;;;;;;;;;5083862;28;19918;-86
2022/11/03 14:31:20;;;;;;;;;;;;;;;;;;5072919;28;19920;-87
2022/11/03 14:34:06;;;;;;;;;;;;;;;;;;5072538;28;20012;-86
2022/11/03 14:36:53;;;;;;;;;;;;;;;;;;5069387;28;19916;-85
2022/11/03 14:39:39;;;;;;;;;;;;;;;;;;5056572;28;19946;-84
2022/11/03 14:42:26;;;;;;;;;;;;;;;;;;5070437;28;19916;-85
2022/11/03 14:45:15;;;;;;;;;;;;;;;;;;5073705;28;19922;-83
2022/11/03 14:48:01;;;;;;;;;;;;;;;;;;5072402;28;19916;-84
2022/11/03 14:50:49;;;;;;;;;;;;;;;;;;5069641;28;19919;-87
2022/11/03 14:53:35;;;;;;;;;;;;;;;;;;5069074;28;19912;-87
2022/11/03 14:56:22;;;;;;;;;;;;;;;;;;5073978;28;19927;-87
2022/11/03 14:59:08;;;;;;;;;;;;;;;;;;5071852;28;20339;-86
2022/11/03 15:01:55;;;;;;;;;;;;;;;;;;5071313;28;20414;-87
2022/11/03 15:04:41;;;;;;;;;;;;;;;;;;5064571;28;19916;-87
2022/11/03 15:07:28;;;;;;;;;;;;;;;;;;5064702;28;19919;-88
2022/11/03 15:10:14;;;;;;;;;;;;;;;;;;5071932;28;19926;-90
2022/11/03 15:13:01;;;;;;;;;;;;;;;;;;5068467;28;20227;-87
2022/11/03 15:15:47;;;;;;;;;;;;;;;;;;5071130;28;19912;-85
2022/11/03 15:18:34;;;;;;;;;;;;;;;;;;5084315;28;19912;-90
2022/11/03 15:21:20;;;;;;;;;;;;;;;;;;5067317;28;19920;-89
2022/11/03 15:24:07;;;;;;;;;;;;;;;;;;5072265;28;19912;-88
2022/11/03 15:26:53;;;;;;;;;;;;;;;;;;5069568;28;20016;-89
2022/11/03 15:29:40;;;;;;;;;;;;;;;;;;5061914;28;19923;-85
2022/11/03 15:32:26;;;;;;;;;;;;;;;;;;5062234;28;19916;-86
2022/11/03 15:35:13;;;;;;;;;;;;;;;;;;5064842;28;19939;-86
2022/11/03 15:37:59;;;;;;;;;;;;;;;;;;5067143;28;20287;-85
2022/11/03 15:40:47;;;;;;;;;;;;;;;;;;5066605;28;20129;-85
2022/11/03 15:43:34;;;;;;;;;;;;;;;;;;5066695;28;19912;-85
2022/11/03 15:46:20;;;;;;;;;;;;;;;;;;5067440;28;19923;-86
2022/11/03 15:49:07;;;;;;;;;;;;;;;;;;5083038;28;20488;-87
2022/11/03 15:51:53;;;;;;;;;;;;;;;;;;5068864;28;19912;-85
2022/11/03 15:54:40;;;;;;;;;;;;;;;;;;5081487;28;19912;-86
2022/11/03 15:57:26;;;;;;;;;;;;;;;;;;5066483;28;19912;-85
2022/11/03 16:00:13;;;;;;;;;;;;;;;;;;5067696;28;19927;-87
2022/11/03 16:02:59;;;;;;;;;;;;;;;;;;5066390;28;19919;-85
2022/11/03 16:05:46;;;;;;;;;;;;;;;;;;5067500;28;19920;-85
2022/11/03 16:08:32;;;;;;;;;;;;;;;;;;5065549;28;19927;-85
2022/11/03 16:11:19;;;;;;;;;;;;;;;;;;5084096;28;19912;-85
2022/11/03 16:14:05;;;;;;;;;;;;;;;;;;5066318;28;19916;-86
2022/11/03 16:16:52;;;;;;;;;;;;;;;;;;5066097;28;19912;-86
2022/11/03 16:19:38;;;;;;;;;;;;;;;;;;5065928;28;19923;-87
2022/11/03 16:22:25;;;;;;;;;;;;;;;;;;5066020;28;20394;-86
2022/11/03 16:25:11;;;;;;;;;;;;;;;;;;5066316;28;19919;-85
2022/11/03 16:27:58;;;;;;;;;;;;;;;;;;5080094;28;20299;-85
2022/11/03 16:30:44;;;;;;;;;;;;;;;;;;5067284;28;19923;-85
2022/11/03 16:33:31;;;;;;;;;;;;;;;;;;5066204;28;20283;-85
2022/11/03 16:36:20;;;;;;;;;;;;;;;;;;5057983;28;19967;-84
2022/11/03 16:39:07;;;;;;;;;;;;;;;;;;5083036;28;19935;-87
2022/11/03 16:41:53;;;;;;;;;;;;;;;;;;5067975;28;19931;-86
2022/11/03 16:44:40;;;;;;;;;;;;;;;;;;5070711;28;19912;-86
2022/11/03 16:47:26;;;;;;;;;;;;;;;;;;5068700;28;19912;-87
2022/11/03 16:50:14;;;;;;;;;;;;;;;;;;5069821;28;19923;-88
2022/11/03 16:53:02;;;;;;;;;;;;;;;;;;5068769;28;19916;-86
2022/11/03 16:55:48;;;;;;;;;;;;;;;;;;5071076;28;19923;-86
2022/11/03 16:58:35;;;;;;;;;;;;;;;;;;5082240;28;19923;-87
2022/11/03 17:01:21;;;;;;;;;;;;;;;;;;5067897;28;20023;-87
2022/11/03 17:04:08;;;;;;;;;;;;;;;;;;5068314;28;19920;-86
2022/11/03 17:06:54;;;;;;;;;;;;;;;;;;5067422;28;19916;-86
2022/11/03 17:09:41;;;;;;;;;;;;;;;;;;5069006;28;20011;-86
2022/11/03 17:12:27;;;;;;;;;;;;;;;;;;5068563;28;19912;-86
2022/11/03 17:15:14;;;;;;;;;;;;;;;;;;5068836;28;19916;-86
2022/11/03 17:18:00;;;;;;;;;;;;;;;;;;5068173;28;19922;-86
2022/11/03 17:20:47;;;;;;;;;;;;;;;;;;5070585;28;20255;-84
2022/11/03 17:23:33;;;;;;;;;;;;;;;;;;5077593;28;19917;-86
2022/11/03 17:26:20;;;;;;;;;;;;;;;;;;5079634;28;19920;-85
2022/11/03 17:29:06;;;;;;;;;;;;;;;;;;5074748;28;19923;-85
2022/11/03 17:31:54;;;;;;;;;;;;;;;;;;5078841;28;20450;-85
2022/11/03 17:34:41;;;;;;;;;;;;;;;;;;5083203;28;19920;-87
2022/11/03 17:37:27;;;;;;;;;;;;;;;;;;5081398;28;19916;-89
2022/11/03 17:40:14;;;;;;;;;;;;;;;;;;5064400;28;19920;-86
2022/11/03 17:43:00;;;;;;;;;;;;;;;;;;5064893;28;19908;-87
2022/11/03 17:45:47;;;;;;;;;;;;;;;;;;5070747;28;19919;-87
2022/11/03 17:48:33;;;;;;;;;;;;;;;;;;5064301;28;19924;-87
2022/11/03 17:51:20;;;;;;;;;;;;;;;;;;5056155;28;20382;-87
2022/11/03 17:54:07;;;;;;;;;;;;;;;;;;5065545;28;19912;-86
2022/11/03 17:56:53;;;;;;;;;;;;;;;;;;5064881;28;19913;-87
2022/11/03 17:59:40;;;;;;;;;;;;;;;;;;5065138;28;19920;-87
2022/11/03 18:02:27;;;;;;;;;;;;;;;;;;5064706;28;19921;-85
2022/11/03 18:05:14;;;;;;;;;;;;;;;;;;5064356;28;19923;-89
2022/11/03 18:08:00;;;;;;;;;;;;;;;;;;5066514;28;19916;-86
2022/11/03 18:10:56;;;;;;;;;;;;;;;;;;5072835;28;19927;-86
2022/11/03 18:13:42;;;;;;;;;;;;;;;;;;5087413;28;19917;-86
2022/11/03 18:16:48;;;;;;;;;;;;;;;;;;;;;
2022/11/03 18:19:41;;;;;;;;;;;;;;;;;;5070071;28;19913;-86
2022/11/03 18:22:34;;;;;;;;;;;;;;;;;;5064834;28;19924;-86